sensor_id;sensor_type;location;lat;lon;timestamp;temperature;humidity
46231;DHT22;31949;51.404;-0.038;2023-05-29T00:00:29;12.20;99.90
46231;DHT22;31949;51.404;-0.038;2023-05-29T00:02:59;12.10;99.90
46231;DHT22;31949;51.404;-0.038;2023-05-29T00:05:29;12.20;99.90
46231;DHT22;31949;51.404;-0.038;2023-05-29T00:07:56;12.10;99.90
46231;DHT22;31949;51.404;-0.038;2023-05-29T00:10:24;12.10;99.90
46231;DHT22;31949;51.404;-0.038;2023-05-29T00:12:51;12.10;99.90
46231;DHT22;31949;51.404;-0.038;2023-05-29T00:15:18;12.10;99.90
46231;DHT22;31949;51.404;-0.038;2023-05-29T00:17:46;12.10;99.90
46231;DHT22;31949;51.404;-0.038;2023-05-29T00:20:13;12.00;99.90
46231;DHT22;31949;51.404;-0.038;2023-05-29T00:22:40;12.00;99.90
46231;DHT22;31949;51.404;-0.038;2023-05-29T00:25:08;12.00;99.90
46231;DHT22;31949;51.404;-0.038;2023-05-29T00:27:36;12.00;99.90
46231;DHT22;31949;51.404;-0.038;2023-05-29T00:30:04;11.90;99.90
46231;DHT22;31949;51.404;-0.038;2023-05-29T00:32:31;11.90;99.90
46231;DHT22;31949;51.404;-0.038;2023-05-29T00:34:59;11.90;99.90
46231;DHT22;31949;51.404;-0.038;2023-05-29T00:37:27;11.90;99.90
46231;DHT22;31949;51.404;-0.038;2023-05-29T00:39:55;11.90;99.90
46231;DHT22;31949;51.404;-0.038;2023-05-29T00:42:22;11.90;99.90
46231;DHT22;31949;51.404;-0.038;2023-05-29T00:44:49;11.80;99.90
46231;DHT22;31949;51.404;-0.038;2023-05-29T00:47:17;11.80;99.90
46231;DHT22;31949;51.404;-0.038;2023-05-29T00:49:45;11.80;99.90
46231;DHT22;31949;51.404;-0.038;2023-05-29T00:52:12;11.80;99.90
46231;DHT22;31949;51.404;-0.038;2023-05-29T00:54:43;11.70;99.90
46231;DHT22;31949;51.404;-0.038;2023-05-29T00:57:13;11.70;99.90
46231;DHT22;31949;51.404;-0.038;2023-05-29T00:59:41;11.70;99.90
46231;DHT22;31949;51.404;-0.038;2023-05-29T01:02:09;11.70;99.90
46231;DHT22;31949;51.404;-0.038;2023-05-29T01:04:37;11.70;99.90
46231;DHT22;31949;51.404;-0.038;2023-05-29T01:07:05;11.70;99.90
46231;DHT22;31949;51.404;-0.038;2023-05-29T01:09:32;11.60;99.90
46231;DHT22;31949;51.404;-0.038;2023-05-29T01:12:03;11.60;99.90
46231;DHT22;31949;51.404;-0.038;2023-05-29T01:17:54;11.50;99.90
46231;DHT22;31949;51.404;-0.038;2023-05-29T01:24:08;11.40;99.90
46231;DHT22;31949;51.404;-0.038;2023-05-29T01:26:14;11.40;99.90
46231;DHT22;31949;51.404;-0.038;2023-05-29T01:28:52;11.30;99.90
46231;DHT22;31949;51.404;-0.038;2023-05-29T01:31:23;11.30;99.90
46231;DHT22;31949;51.404;-0.038;2023-05-29T01:33:57;11.20;99.90
46231;DHT22;31949;51.404;-0.038;2023-05-29T01:36:25;11.20;99.90
46231;DHT22;31949;51.404;-0.038;2023-05-29T01:38:55;11.20;99.90
46231;DHT22;31949;51.404;-0.038;2023-05-29T01:41:24;11.20;99.90
46231;DHT22;31949;51.404;-0.038;2023-05-29T01:43:52;11.20;99.90
46231;DHT22;31949;51.404;-0.038;2023-05-29T01:46:20;11.20;99.90
46231;DHT22;31949;51.404;-0.038;2023-05-29T01:48:49;11.20;99.90
46231;DHT22;31949;51.404;-0.038;2023-05-29T01:51:16;11.10;99.90
46231;DHT22;31949;51.404;-0.038;2023-05-29T01:53:45;11.00;99.90
46231;DHT22;31949;51.404;-0.038;2023-05-29T01:56:12;11.10;99.90
46231;DHT22;31949;51.404;-0.038;2023-05-29T01:58:41;11.00;99.90
46231;DHT22;31949;51.404;-0.038;2023-05-29T02:01:09;11.00;99.90
46231;DHT22;31949;51.404;-0.038;2023-05-29T02:03:36;10.90;99.90
46231;DHT22;31949;51.404;-0.038;2023-05-29T02:06:04;10.90;99.90
46231;DHT22;31949;51.404;-0.038;2023-05-29T02:08:31;10.90;99.90
46231;DHT22;31949;51.404;-0.038;2023-05-29T02:10:58;10.90;99.90
46231;DHT22;31949;51.404;-0.038;2023-05-29T02:13:25;10.90;99.90
46231;DHT22;31949;51.404;-0.038;2023-05-29T02:15:53;10.80;99.90
46231;DHT22;31949;51.404;-0.038;2023-05-29T02:18:22;10.70;99.90
46231;DHT22;31949;51.404;-0.038;2023-05-29T02:20:49;10.70;99.90
46231;DHT22;31949;51.404;-0.038;2023-05-29T02:23:21;10.60;99.90
46231;DHT22;31949;51.404;-0.038;2023-05-29T02:25:50;10.60;99.90
46231;DHT22;31949;51.404;-0.038;2023-05-29T02:28:18;10.60;99.90
46231;DHT22;31949;51.404;-0.038;2023-05-29T02:30:45;10.60;99.90
46231;DHT22;31949;51.404;-0.038;2023-05-29T02:33:12;10.50;99.90
46231;DHT22;31949;51.404;-0.038;2023-05-29T02:35:39;10.50;99.90
46231;DHT22;31949;51.404;-0.038;2023-05-29T02:38:07;10.50;99.90
46231;DHT22;31949;51.404;-0.038;2023-05-29T02:40:34;10.40;99.90
46231;DHT22;31949;51.404;-0.038;2023-05-29T02:43:01;10.40;99.90
46231;DHT22;31949;51.404;-0.038;2023-05-29T02:45:30;10.40;99.90
46231;DHT22;31949;51.404;-0.038;2023-05-29T02:47:59;10.30;99.90
46231;DHT22;31949;51.404;-0.038;2023-05-29T02:50:27;10.30;99.90
46231;DHT22;31949;51.404;-0.038;2023-05-29T02:52:55;10.30;99.90
46231;DHT22;31949;51.404;-0.038;2023-05-29T02:55:22;10.20;99.90
46231;DHT22;31949;51.404;-0.038;2023-05-29T02:57:49;10.20;99.90
46231;DHT22;31949;51.404;-0.038;2023-05-29T03:00:19;10.20;99.90
46231;DHT22;31949;51.404;-0.038;2023-05-29T03:02:47;10.10;99.90
46231;DHT22;31949;51.404;-0.038;2023-05-29T03:05:15;10.10;99.90
46231;DHT22;31949;51.404;-0.038;2023-05-29T03:07:43;10.10;99.90
46231;DHT22;31949;51.404;-0.038;2023-05-29T03:10:11;10.10;99.90
46231;DHT22;31949;51.404;-0.038;2023-05-29T03:12:38;10.10;99.90
46231;DHT22;31949;51.404;-0.038;2023-05-29T03:15:06;10.00;99.90
46231;DHT22;31949;51.404;-0.038;2023-05-29T03:17:34;10.00;99.90
46231;DHT22;31949;51.404;-0.038;2023-05-29T03:20:08;10.00;99.90
46231;DHT22;31949;51.404;-0.038;2023-05-29T03:22:36;9.90;99.90
46231;DHT22;31949;51.404;-0.038;2023-05-29T03:25:03;10.00;99.90
46231;DHT22;31949;51.404;-0.038;2023-05-29T03:27:31;9.90;99.90
46231;DHT22;31949;51.404;-0.038;2023-05-29T03:30:06;9.90;99.90
46231;DHT22;31949;51.404;-0.038;2023-05-29T03:32:34;9.90;99.90
46231;DHT22;31949;51.404;-0.038;2023-05-29T03:35:01;9.90;99.90
46231;DHT22;31949;51.404;-0.038;2023-05-29T03:37:30;9.90;99.90
46231;DHT22;31949;51.404;-0.038;2023-05-29T03:39:58;9.90;99.90
46231;DHT22;31949;51.404;-0.038;2023-05-29T03:42:25;9.80;99.90
46231;DHT22;31949;51.404;-0.038;2023-05-29T03:44:52;9.80;99.90
46231;DHT22;31949;51.404;-0.038;2023-05-29T03:47:21;9.80;99.90
46231;DHT22;31949;51.404;-0.038;2023-05-29T03:49:49;9.70;99.90
46231;DHT22;31949;51.404;-0.038;2023-05-29T03:52:18;9.70;99.90
46231;DHT22;31949;51.404;-0.038;2023-05-29T03:54:45;9.70;99.90
46231;DHT22;31949;51.404;-0.038;2023-05-29T03:57:12;9.70;99.90
46231;DHT22;31949;51.404;-0.038;2023-05-29T03:59:39;9.70;99.90
46231;DHT22;31949;51.404;-0.038;2023-05-29T04:02:07;9.70;99.90
46231;DHT22;31949;51.404;-0.038;2023-05-29T04:04:35;9.70;99.90
46231;DHT22;31949;51.404;-0.038;2023-05-29T04:07:03;9.70;99.90
46231;DHT22;31949;51.404;-0.038;2023-05-29T04:09:30;9.70;99.90
46231;DHT22;31949;51.404;-0.038;2023-05-29T04:12:00;9.60;99.90
46231;DHT22;31949;51.404;-0.038;2023-05-29T04:14:29;9.70;99.90
46231;DHT22;31949;51.404;-0.038;2023-05-29T04:16:56;9.70;99.90
46231;DHT22;31949;51.404;-0.038;2023-05-29T04:19:24;9.70;99.90
46231;DHT22;31949;51.404;-0.038;2023-05-29T04:21:51;9.80;99.90
46231;DHT22;31949;51.404;-0.038;2023-05-29T04:24:19;9.70;99.90
46231;DHT22;31949;51.404;-0.038;2023-05-29T04:26:46;9.70;99.90
46231;DHT22;31949;51.404;-0.038;2023-05-29T04:29:13;9.70;99.90
46231;DHT22;31949;51.404;-0.038;2023-05-29T04:31:44;9.70;99.90
46231;DHT22;31949;51.404;-0.038;2023-05-29T04:34:11;9.70;99.90
46231;DHT22;31949;51.404;-0.038;2023-05-29T04:36:44;9.60;99.90
46231;DHT22;31949;51.404;-0.038;2023-05-29T04:39:13;9.70;99.90
46231;DHT22;31949;51.404;-0.038;2023-05-29T04:41:41;9.70;99.90
46231;DHT22;31949;51.404;-0.038;2023-05-29T04:44:12;9.60;99.90
46231;DHT22;31949;51.404;-0.038;2023-05-29T04:46:46;9.60;99.90
46231;DHT22;31949;51.404;-0.038;2023-05-29T04:49:15;9.70;99.90
46231;DHT22;31949;51.404;-0.038;2023-05-29T04:51:42;9.70;99.90
46231;DHT22;31949;51.404;-0.038;2023-05-29T04:54:10;9.70;99.90
46231;DHT22;31949;51.404;-0.038;2023-05-29T04:56:39;9.70;99.90
46231;DHT22;31949;51.404;-0.038;2023-05-29T04:59:12;9.70;99.90
46231;DHT22;31949;51.404;-0.038;2023-05-29T05:01:40;9.80;99.90
46231;DHT22;31949;51.404;-0.038;2023-05-29T05:04:10;9.80;99.90
46231;DHT22;31949;51.404;-0.038;2023-05-29T05:06:37;9.80;99.90
46231;DHT22;31949;51.404;-0.038;2023-05-29T05:09:06;9.80;99.90
46231;DHT22;31949;51.404;-0.038;2023-05-29T05:11:33;9.80;99.90
46231;DHT22;31949;51.404;-0.038;2023-05-29T05:14:00;9.90;99.90
46231;DHT22;31949;51.404;-0.038;2023-05-29T05:16:29;9.90;99.90
46231;DHT22;31949;51.404;-0.038;2023-05-29T05:18:57;10.00;99.90
46231;DHT22;31949;51.404;-0.038;2023-05-29T05:21:24;10.10;99.90
46231;DHT22;31949;51.404;-0.038;2023-05-29T05:23:53;10.10;99.90
46231;DHT22;31949;51.404;-0.038;2023-05-29T05:26:25;10.30;99.90
46231;DHT22;31949;51.404;-0.038;2023-05-29T05:28:55;10.30;99.90
46231;DHT22;31949;51.404;-0.038;2023-05-29T05:31:25;10.40;99.90
46231;DHT22;31949;51.404;-0.038;2023-05-29T05:33:53;10.40;99.90
46231;DHT22;31949;51.404;-0.038;2023-05-29T05:36:20;10.60;99.90
46231;DHT22;31949;51.404;-0.038;2023-05-29T05:38:54;10.60;99.90
46231;DHT22;31949;51.404;-0.038;2023-05-29T05:41:22;10.70;99.90
46231;DHT22;31949;51.404;-0.038;2023-05-29T05:43:50;10.70;99.90
46231;DHT22;31949;51.404;-0.038;2023-05-29T05:46:29;10.80;99.90
46231;DHT22;31949;51.404;-0.038;2023-05-29T05:48:56;10.90;99.90
46231;DHT22;31949;51.404;-0.038;2023-05-29T05:51:24;10.90;99.90
46231;DHT22;31949;51.404;-0.038;2023-05-29T05:53:52;10.90;99.90
46231;DHT22;31949;51.404;-0.038;2023-05-29T05:56:19;10.90;99.90
46231;DHT22;31949;51.404;-0.038;2023-05-29T05:58:47;11.00;99.90
46231;DHT22;31949;51.404;-0.038;2023-05-29T06:01:18;11.10;99.90
46231;DHT22;31949;51.404;-0.038;2023-05-29T06:03:46;11.20;99.90
46231;DHT22;31949;51.404;-0.038;2023-05-29T06:06:13;11.40;99.90
46231;DHT22;31949;51.404;-0.038;2023-05-29T06:08:42;11.50;99.90
46231;DHT22;31949;51.404;-0.038;2023-05-29T06:11:10;11.60;99.90
46231;DHT22;31949;51.404;-0.038;2023-05-29T06:13:41;11.60;99.90
46231;DHT22;31949;51.404;-0.038;2023-05-29T06:16:15;11.70;99.90
46231;DHT22;31949;51.404;-0.038;2023-05-29T06:18:42;11.90;99.90
46231;DHT22;31949;51.404;-0.038;2023-05-29T06:21:11;12.00;99.90
46231;DHT22;31949;51.404;-0.038;2023-05-29T06:23:45;12.10;99.90
46231;DHT22;31949;51.404;-0.038;2023-05-29T06:26:12;12.30;99.90
46231;DHT22;31949;51.404;-0.038;2023-05-29T06:28:40;12.50;99.90
46231;DHT22;31949;51.404;-0.038;2023-05-29T06:31:07;12.80;99.90
46231;DHT22;31949;51.404;-0.038;2023-05-29T06:33:36;13.10;99.90
46231;DHT22;31949;51.404;-0.038;2023-05-29T06:36:05;13.30;99.90
46231;DHT22;31949;51.404;-0.038;2023-05-29T06:38:34;13.50;99.90
46231;DHT22;31949;51.404;-0.038;2023-05-29T06:41:01;13.70;99.90
46231;DHT22;31949;51.404;-0.038;2023-05-29T06:43:29;13.90;99.90
46231;DHT22;31949;51.404;-0.038;2023-05-29T06:45:57;13.90;99.90
46231;DHT22;31949;51.404;-0.038;2023-05-29T06:48:24;13.80;99.90
46231;DHT22;31949;51.404;-0.038;2023-05-29T06:50:51;13.70;99.90
46231;DHT22;31949;51.404;-0.038;2023-05-29T06:53:38;13.80;99.90
46231;DHT22;31949;51.404;-0.038;2023-05-29T06:56:07;13.80;99.90
46231;DHT22;31949;51.404;-0.038;2023-05-29T06:58:35;13.90;99.90
46231;DHT22;31949;51.404;-0.038;2023-05-29T07:01:02;14.00;99.90
46231;DHT22;31949;51.404;-0.038;2023-05-29T07:03:35;14.20;99.90
46231;DHT22;31949;51.404;-0.038;2023-05-29T07:06:04;14.10;99.90
46231;DHT22;31949;51.404;-0.038;2023-05-29T07:08:33;14.00;99.90
46231;DHT22;31949;51.404;-0.038;2023-05-29T07:11:01;14.00;99.90
46231;DHT22;31949;51.404;-0.038;2023-05-29T07:13:28;13.90;99.90
46231;DHT22;31949;51.404;-0.038;2023-05-29T07:15:56;13.90;99.90
46231;DHT22;31949;51.404;-0.038;2023-05-29T07:18:29;13.80;99.90
46231;DHT22;31949;51.404;-0.038;2023-05-29T07:21:00;13.80;99.90
46231;DHT22;31949;51.404;-0.038;2023-05-29T07:23:29;13.90;99.90
46231;DHT22;31949;51.404;-0.038;2023-05-29T07:25:57;13.90;99.90
46231;DHT22;31949;51.404;-0.038;2023-05-29T07:28:27;14.00;99.90
46231;DHT22;31949;51.404;-0.038;2023-05-29T07:30:55;14.00;99.90
46231;DHT22;31949;51.404;-0.038;2023-05-29T07:33:23;13.90;99.90
46231;DHT22;31949;51.404;-0.038;2023-05-29T07:35:53;14.00;99.90
46231;DHT22;31949;51.404;-0.038;2023-05-29T07:38:20;14.00;99.90
46231;DHT22;31949;51.404;-0.038;2023-05-29T07:40:48;14.10;99.90
46231;DHT22;31949;51.404;-0.038;2023-05-29T07:43:26;14.00;99.90
46231;DHT22;31949;51.404;-0.038;2023-05-29T07:45:58;14.00;99.90
46231;DHT22;31949;51.404;-0.038;2023-05-29T07:48:26;14.20;99.90
46231;DHT22;31949;51.404;-0.038;2023-05-29T07:50:53;14.20;99.90
46231;DHT22;31949;51.404;-0.038;2023-05-29T07:53:22;14.30;99.90
46231;DHT22;31949;51.404;-0.038;2023-05-29T07:55:50;14.10;99.90
46231;DHT22;31949;51.404;-0.038;2023-05-29T07:58:17;14.20;99.90
46231;DHT22;31949;51.404;-0.038;2023-05-29T08:00:45;14.30;99.90
46231;DHT22;31949;51.404;-0.038;2023-05-29T08:03:13;14.50;99.90
46231;DHT22;31949;51.404;-0.038;2023-05-29T08:06:00;14.50;99.90
46231;DHT22;31949;51.404;-0.038;2023-05-29T08:08:28;14.80;99.90
46231;DHT22;31949;51.404;-0.038;2023-05-29T08:10:55;14.70;99.90
46231;DHT22;31949;51.404;-0.038;2023-05-29T08:13:23;14.80;99.90
46231;DHT22;31949;51.404;-0.038;2023-05-29T08:15:51;14.80;99.90
46231;DHT22;31949;51.404;-0.038;2023-05-29T08:18:18;14.60;99.90
46231;DHT22;31949;51.404;-0.038;2023-05-29T08:20:46;14.70;99.90
46231;DHT22;31949;51.404;-0.038;2023-05-29T08:23:13;14.60;99.90
46231;DHT22;31949;51.404;-0.038;2023-05-29T08:25:40;14.70;99.90
46231;DHT22;31949;51.404;-0.038;2023-05-29T08:28:07;15.00;99.90
46231;DHT22;31949;51.404;-0.038;2023-05-29T08:30:34;15.10;99.90
46231;DHT22;31949;51.404;-0.038;2023-05-29T08:33:02;15.10;99.90
46231;DHT22;31949;51.404;-0.038;2023-05-29T08:35:30;15.00;99.90
46231;DHT22;31949;51.404;-0.038;2023-05-29T08:37:57;14.90;99.90
46231;DHT22;31949;51.404;-0.038;2023-05-29T08:40:24;15.00;99.90
46231;DHT22;31949;51.404;-0.038;2023-05-29T08:43:08;15.10;99.90
46231;DHT22;31949;51.404;-0.038;2023-05-29T08:45:42;15.20;99.90
46231;DHT22;31949;51.404;-0.038;2023-05-29T08:48:14;15.30;99.90
46231;DHT22;31949;51.404;-0.038;2023-05-29T08:50:45;15.20;99.90
46231;DHT22;31949;51.404;-0.038;2023-05-29T08:53:14;15.20;99.90
46231;DHT22;31949;51.404;-0.038;2023-05-29T08:55:42;15.30;99.90
46231;DHT22;31949;51.404;-0.038;2023-05-29T08:58:11;15.50;99.90
46231;DHT22;31949;51.404;-0.038;2023-05-29T09:00:38;15.40;99.90
46231;DHT22;31949;51.404;-0.038;2023-05-29T09:03:07;15.40;99.90
46231;DHT22;31949;51.404;-0.038;2023-05-29T09:05:35;15.20;99.90
46231;DHT22;31949;51.404;-0.038;2023-05-29T09:08:10;15.30;99.90
46231;DHT22;31949;51.404;-0.038;2023-05-29T09:10:43;15.40;99.90
46231;DHT22;31949;51.404;-0.038;2023-05-29T09:13:13;15.40;99.90
46231;DHT22;31949;51.404;-0.038;2023-05-29T09:15:41;15.40;99.90
46231;DHT22;31949;51.404;-0.038;2023-05-29T09:18:12;15.50;99.90
46231;DHT22;31949;51.404;-0.038;2023-05-29T09:20:40;15.50;99.90
46231;DHT22;31949;51.404;-0.038;2023-05-29T09:23:09;15.80;99.90
46231;DHT22;31949;51.404;-0.038;2023-05-29T09:25:41;16.00;99.90
46231;DHT22;31949;51.404;-0.038;2023-05-29T09:28:12;16.20;99.90
46231;DHT22;31949;51.404;-0.038;2023-05-29T09:30:40;16.30;99.90
46231;DHT22;31949;51.404;-0.038;2023-05-29T09:33:09;16.50;99.90
46231;DHT22;31949;51.404;-0.038;2023-05-29T09:35:41;16.70;99.90
46231;DHT22;31949;51.404;-0.038;2023-05-29T09:38:16;16.70;99.90
46231;DHT22;31949;51.404;-0.038;2023-05-29T09:41:04;16.80;99.90
46231;DHT22;31949;51.404;-0.038;2023-05-29T09:43:32;16.70;99.90
46231;DHT22;31949;51.404;-0.038;2023-05-29T09:46:01;16.70;99.90
46231;DHT22;31949;51.404;-0.038;2023-05-29T09:48:29;16.60;99.90
46231;DHT22;31949;51.404;-0.038;2023-05-29T09:50:58;16.70;99.90
46231;DHT22;31949;51.404;-0.038;2023-05-29T09:53:26;16.70;99.90
46231;DHT22;31949;51.404;-0.038;2023-05-29T09:55:56;16.70;99.90
46231;DHT22;31949;51.404;-0.038;2023-05-29T09:58:27;16.80;99.90
46231;DHT22;31949;51.404;-0.038;2023-05-29T10:00:58;16.80;99.90
46231;DHT22;31949;51.404;-0.038;2023-05-29T10:03:25;16.80;99.90
46231;DHT22;31949;51.404;-0.038;2023-05-29T10:05:55;16.90;99.90
46231;DHT22;31949;51.404;-0.038;2023-05-29T10:08:25;16.90;99.90
46231;DHT22;31949;51.404;-0.038;2023-05-29T10:10:59;16.90;99.80
46231;DHT22;31949;51.404;-0.038;2023-05-29T10:13:33;16.80;99.80
46231;DHT22;31949;51.404;-0.038;2023-05-29T10:16:03;17.10;99.70
46231;DHT22;31949;51.404;-0.038;2023-05-29T10:18:38;17.00;99.60
46231;DHT22;31949;51.404;-0.038;2023-05-29T10:21:07;17.30;99.70
46231;DHT22;31949;51.404;-0.038;2023-05-29T10:23:38;17.20;99.20
46231;DHT22;31949;51.404;-0.038;2023-05-29T10:26:14;17.20;99.10
46231;DHT22;31949;51.404;-0.038;2023-05-29T10:28:49;17.10;99.60
46231;DHT22;31949;51.404;-0.038;2023-05-29T10:31:26;17.10;99.50
46231;DHT22;31949;51.404;-0.038;2023-05-29T10:34:00;17.30;99.70
46231;DHT22;31949;51.404;-0.038;2023-05-29T10:36:40;17.40;99.10
46231;DHT22;31949;51.404;-0.038;2023-05-29T10:39:09;17.40;99.10
46231;DHT22;31949;51.404;-0.038;2023-05-29T10:41:36;17.50;99.20
46231;DHT22;31949;51.404;-0.038;2023-05-29T10:44:39;17.60;98.90
46231;DHT22;31949;51.404;-0.038;2023-05-29T10:47:07;17.70;98.80
46231;DHT22;31949;51.404;-0.038;2023-05-29T10:49:36;18.00;98.80
46231;DHT22;31949;51.404;-0.038;2023-05-29T10:52:04;18.00;98.80
46231;DHT22;31949;51.404;-0.038;2023-05-29T10:54:40;17.80;98.70
46231;DHT22;31949;51.404;-0.038;2023-05-29T10:57:08;17.60;99.60
46231;DHT22;31949;51.404;-0.038;2023-05-29T10:59:39;17.70;98.60
46231;DHT22;31949;51.404;-0.038;2023-05-29T11:02:06;17.60;99.20
46231;DHT22;31949;51.404;-0.038;2023-05-29T11:04:33;17.80;98.90
46231;DHT22;31949;51.404;-0.038;2023-05-29T11:07:01;17.90;99.00
46231;DHT22;31949;51.404;-0.038;2023-05-29T11:09:34;17.80;99.50
46231;DHT22;31949;51.404;-0.038;2023-05-29T11:15:00;17.70;99.40
46231;DHT22;31949;51.404;-0.038;2023-05-29T11:17:30;17.80;99.50
46231;DHT22;31949;51.404;-0.038;2023-05-29T11:20:01;17.90;99.00
46231;DHT22;31949;51.404;-0.038;2023-05-29T11:25:17;18.00;98.60
46231;DHT22;31949;51.404;-0.038;2023-05-29T11:27:44;17.90;98.70
46231;DHT22;31949;51.404;-0.038;2023-05-29T11:30:13;17.90;98.70
46231;DHT22;31949;51.404;-0.038;2023-05-29T11:32:40;17.90;98.80
46231;DHT22;31949;51.404;-0.038;2023-05-29T11:35:10;18.00;99.20
46231;DHT22;31949;51.404;-0.038;2023-05-29T11:37:41;18.10;99.10
46231;DHT22;31949;51.404;-0.038;2023-05-29T11:40:13;18.00;98.70
46231;DHT22;31949;51.404;-0.038;2023-05-29T11:42:45;18.00;99.00
46231;DHT22;31949;51.404;-0.038;2023-05-29T11:45:14;17.90;99.30
46231;DHT22;31949;51.404;-0.038;2023-05-29T11:47:58;17.90;99.50
46231;DHT22;31949;51.404;-0.038;2023-05-29T11:50:28;18.00;98.30
46231;DHT22;31949;51.404;-0.038;2023-05-29T11:52:57;17.80;98.20
46231;DHT22;31949;51.404;-0.038;2023-05-29T11:55:26;17.70;98.50
46231;DHT22;31949;51.404;-0.038;2023-05-29T11:57:58;17.70;98.70
46231;DHT22;31949;51.404;-0.038;2023-05-29T12:00:29;17.80;98.60
46231;DHT22;31949;51.404;-0.038;2023-05-29T12:02:58;17.70;98.60
46231;DHT22;31949;51.404;-0.038;2023-05-29T12:05:31;17.70;98.30
46231;DHT22;31949;51.404;-0.038;2023-05-29T12:07:59;17.90;98.30
46231;DHT22;31949;51.404;-0.038;2023-05-29T12:10:31;17.90;98.30
46231;DHT22;31949;51.404;-0.038;2023-05-29T12:12:59;17.70;98.30
46231;DHT22;31949;51.404;-0.038;2023-05-29T12:15:30;17.70;98.40
46231;DHT22;31949;51.404;-0.038;2023-05-29T12:17:57;17.70;98.70
46231;DHT22;31949;51.404;-0.038;2023-05-29T12:20:25;17.80;98.50
46231;DHT22;31949;51.404;-0.038;2023-05-29T12:23:00;17.90;98.80
46231;DHT22;31949;51.404;-0.038;2023-05-29T12:25:28;17.90;98.40
46231;DHT22;31949;51.404;-0.038;2023-05-29T12:27:56;17.90;98.20
46231;DHT22;31949;51.404;-0.038;2023-05-29T12:30:25;17.90;98.30
46231;DHT22;31949;51.404;-0.038;2023-05-29T12:32:55;17.90;99.00
46231;DHT22;31949;51.404;-0.038;2023-05-29T12:35:25;17.80;98.90
46231;DHT22;31949;51.404;-0.038;2023-05-29T12:37:57;17.90;98.60
46231;DHT22;31949;51.404;-0.038;2023-05-29T12:40:25;17.90;98.80
46231;DHT22;31949;51.404;-0.038;2023-05-29T12:45:25;18.00;98.80
46231;DHT22;31949;51.404;-0.038;2023-05-29T12:47:57;17.90;98.10
46231;DHT22;31949;51.404;-0.038;2023-05-29T12:50:27;18.00;98.10
46231;DHT22;31949;51.404;-0.038;2023-05-29T12:53:02;18.00;98.50
46231;DHT22;31949;51.404;-0.038;2023-05-29T12:55:32;18.20;98.10
46231;DHT22;31949;51.404;-0.038;2023-05-29T12:58:11;18.20;98.50
46231;DHT22;31949;51.404;-0.038;2023-05-29T13:00:43;18.40;98.40
46231;DHT22;31949;51.404;-0.038;2023-05-29T13:03:10;18.30;97.90
46231;DHT22;31949;51.404;-0.038;2023-05-29T13:05:38;18.30;98.20
46231;DHT22;31949;51.404;-0.038;2023-05-29T13:08:06;18.30;98.30
46231;DHT22;31949;51.404;-0.038;2023-05-29T13:10:35;18.30;98.00
46231;DHT22;31949;51.404;-0.038;2023-05-29T13:13:03;18.40;98.10
46231;DHT22;31949;51.404;-0.038;2023-05-29T13:15:30;18.40;98.10
46231;DHT22;31949;51.404;-0.038;2023-05-29T13:18:00;18.50;98.00
46231;DHT22;31949;51.404;-0.038;2023-05-29T13:20:28;18.50;97.90
46231;DHT22;31949;51.404;-0.038;2023-05-29T13:22:55;18.50;98.00
46231;DHT22;31949;51.404;-0.038;2023-05-29T13:25:23;18.30;97.60
46231;DHT22;31949;51.404;-0.038;2023-05-29T13:27:52;18.20;97.70
46231;DHT22;31949;51.404;-0.038;2023-05-29T13:30:20;18.20;98.00
46231;DHT22;31949;51.404;-0.038;2023-05-29T13:32:50;18.20;97.90
46231;DHT22;31949;51.404;-0.038;2023-05-29T13:35:19;18.20;97.90
46231;DHT22;31949;51.404;-0.038;2023-05-29T13:37:46;18.20;98.20
46231;DHT22;31949;51.404;-0.038;2023-05-29T13:40:14;18.30;98.50
46231;DHT22;31949;51.404;-0.038;2023-05-29T13:42:41;18.40;98.60
46231;DHT22;31949;51.404;-0.038;2023-05-29T13:45:09;18.40;98.30
46231;DHT22;31949;51.404;-0.038;2023-05-29T13:47:36;18.40;98.00
46231;DHT22;31949;51.404;-0.038;2023-05-29T13:50:04;18.40;98.30
46231;DHT22;31949;51.404;-0.038;2023-05-29T13:52:32;18.30;98.40
46231;DHT22;31949;51.404;-0.038;2023-05-29T13:54:59;18.40;99.20
46231;DHT22;31949;51.404;-0.038;2023-05-29T13:57:32;18.40;98.90
46231;DHT22;31949;51.404;-0.038;2023-05-29T13:59:59;18.40;98.90
46231;DHT22;31949;51.404;-0.038;2023-05-29T14:02:26;18.60;98.80
46231;DHT22;31949;51.404;-0.038;2023-05-29T14:04:54;18.60;98.40
46231;DHT22;31949;51.404;-0.038;2023-05-29T14:07:21;18.50;98.80
46231;DHT22;31949;51.404;-0.038;2023-05-29T14:09:48;18.50;98.60
46231;DHT22;31949;51.404;-0.038;2023-05-29T14:12:15;18.60;98.60
46231;DHT22;31949;51.404;-0.038;2023-05-29T14:14:43;18.60;98.60
46231;DHT22;31949;51.404;-0.038;2023-05-29T14:17:10;18.50;98.90
46231;DHT22;31949;51.404;-0.038;2023-05-29T14:19:39;18.50;98.90
46231;DHT22;31949;51.404;-0.038;2023-05-29T14:22:07;18.40;98.40
46231;DHT22;31949;51.404;-0.038;2023-05-29T14:24:35;18.40;98.60
46231;DHT22;31949;51.404;-0.038;2023-05-29T14:27:03;18.40;98.60
46231;DHT22;31949;51.404;-0.038;2023-05-29T14:29:30;18.50;98.90
46231;DHT22;31949;51.404;-0.038;2023-05-29T14:31:58;18.50;98.90
46231;DHT22;31949;51.404;-0.038;2023-05-29T14:34:25;18.70;98.60
46231;DHT22;31949;51.404;-0.038;2023-05-29T14:36:52;18.60;98.90
46231;DHT22;31949;51.404;-0.038;2023-05-29T14:39:19;18.90;99.00
46231;DHT22;31949;51.404;-0.038;2023-05-29T14:41:47;19.00;98.20
46231;DHT22;31949;51.404;-0.038;2023-05-29T14:44:14;18.90;98.30
46231;DHT22;31949;51.404;-0.038;2023-05-29T14:46:42;18.90;98.60
46231;DHT22;31949;51.404;-0.038;2023-05-29T14:49:10;18.90;98.60
46231;DHT22;31949;51.404;-0.038;2023-05-29T14:51:37;19.00;98.30
46231;DHT22;31949;51.404;-0.038;2023-05-29T14:54:06;18.90;98.60
46231;DHT22;31949;51.404;-0.038;2023-05-29T14:56:33;19.00;98.60
46231;DHT22;31949;51.404;-0.038;2023-05-29T14:59:00;19.00;98.10
46231;DHT22;31949;51.404;-0.038;2023-05-29T15:01:28;19.10;98.30
46231;DHT22;31949;51.404;-0.038;2023-05-29T15:03:55;19.20;97.90
46231;DHT22;31949;51.404;-0.038;2023-05-29T15:06:22;19.30;98.10
46231;DHT22;31949;51.404;-0.038;2023-05-29T15:08:50;19.20;98.30
46231;DHT22;31949;51.404;-0.038;2023-05-29T15:11:18;19.20;97.70
46231;DHT22;31949;51.404;-0.038;2023-05-29T15:13:46;19.30;97.40
46231;DHT22;31949;51.404;-0.038;2023-05-29T15:16:14;19.20;97.40
46231;DHT22;31949;51.404;-0.038;2023-05-29T15:18:41;19.00;97.00
46231;DHT22;31949;51.404;-0.038;2023-05-29T15:21:08;19.00;96.80
46231;DHT22;31949;51.404;-0.038;2023-05-29T15:23:37;19.10;96.90
46231;DHT22;31949;51.404;-0.038;2023-05-29T15:26:06;19.00;96.80
46231;DHT22;31949;51.404;-0.038;2023-05-29T15:28:33;19.10;97.10
46231;DHT22;31949;51.404;-0.038;2023-05-29T15:31:01;19.00;97.50
46231;DHT22;31949;51.404;-0.038;2023-05-29T15:33:28;18.90;97.40
46231;DHT22;31949;51.404;-0.038;2023-05-29T15:35:57;18.90;97.00
46231;DHT22;31949;51.404;-0.038;2023-05-29T15:38:25;18.70;97.00
46231;DHT22;31949;51.404;-0.038;2023-05-29T15:40:53;18.70;96.80
46231;DHT22;31949;51.404;-0.038;2023-05-29T15:43:20;18.70;96.90